createdAt,value
2018-03-01T00:00:44.726Z,948.18
2018-03-01T00:01:44.728Z,948.21
2018-03-01T00:02:44.724Z,948.18
2018-03-01T00:03:44.733Z,948.20
2018-03-01T00:04:44.726Z,948.21
2018-03-01T00:05:44.720Z,948.17
2018-03-01T00:06:44.719Z,948.12
2018-03-01T00:07:44.722Z,948.22
2018-03-01T00:08:44.739Z,948.27
2018-03-01T00:09:44.756Z,948.28
2018-03-01T00:10:44.717Z,948.25
2018-03-01T00:11:44.722Z,948.26
2018-03-01T00:12:44.717Z,948.24
2018-03-01T00:13:44.714Z,948.22
2018-03-01T00:14:44.707Z,948.18
2018-03-01T00:15:46.520Z,948.19
2018-03-01T00:16:44.711Z,948.12
2018-03-01T00:17:44.711Z,948.12
2018-03-01T00:18:44.702Z,948.11
2018-03-01T00:19:44.703Z,948.14
2018-03-01T00:20:44.702Z,948.13
2018-03-01T00:21:44.711Z,948.15
2018-03-01T00:22:44.697Z,948.17
2018-03-01T00:23:44.698Z,948.17
2018-03-01T00:24:44.695Z,948.15
2018-03-01T00:25:44.696Z,948.11
2018-03-01T00:26:44.695Z,948.08
2018-03-01T00:27:44.698Z,948.08
2018-03-01T00:28:44.692Z,948.02
2018-03-01T00:29:44.688Z,947.99
2018-03-01T00:30:44.694Z,947.91
2018-03-01T00:31:44.688Z,947.93
2018-03-01T00:32:44.693Z,947.99
2018-03-01T00:33:44.685Z,947.95
2018-03-01T00:34:44.680Z,947.98
2018-03-01T00:35:44.697Z,948.01
2018-03-01T00:36:44.680Z,947.95
2018-03-01T00:37:44.678Z,947.94
2018-03-01T00:38:44.674Z,948.00
2018-03-01T00:39:44.682Z,948.01
2018-03-01T00:40:44.672Z,947.96
2018-03-01T00:41:44.670Z,947.96
2018-03-01T00:42:44.676Z,947.96
2018-03-01T00:43:44.668Z,947.97
2018-03-01T00:44:44.670Z,947.96
2018-03-01T00:45:44.669Z,947.97
2018-03-01T00:46:44.660Z,947.99
2018-03-01T00:47:44.665Z,947.95
2018-03-01T00:48:44.658Z,948.00
2018-03-01T00:49:44.656Z,947.93
2018-03-01T00:50:44.663Z,947.92
2018-03-01T00:51:44.667Z,947.85
2018-03-01T00:52:44.653Z,947.86
2018-03-01T00:53:44.651Z,947.82
2018-03-01T00:54:44.650Z,947.76
2018-03-01T00:55:44.660Z,947.77
2018-03-01T00:56:44.651Z,947.75
2018-03-01T00:57:44.651Z,947.66
2018-03-01T00:58:44.645Z,947.70
2018-03-01T00:59:44.655Z,947.62
2018-03-01T01:00:44.637Z,947.67
2018-03-01T01:01:44.635Z,947.64
2018-03-01T01:02:44.642Z,947.70
2018-03-01T01:03:44.642Z,947.66
2018-03-01T01:04:44.640Z,947.66
2018-03-01T01:05:44.630Z,947.68
2018-03-01T01:06:44.637Z,947.71
2018-03-01T01:07:44.624Z,947.62
2018-03-01T01:08:44.630Z,947.63
2018-03-01T01:09:44.623Z,947.58
2018-03-01T01:10:44.632Z,947.58
2018-03-01T01:11:44.618Z,947.55
2018-03-01T01:12:44.619Z,947.59
2018-03-01T01:13:44.626Z,947.60
2018-03-01T01:14:44.622Z,947.67
2018-03-01T01:15:44.613Z,947.71
2018-03-01T01:16:44.624Z,947.68
2018-03-01T01:17:44.615Z,947.64
2018-03-01T01:18:44.607Z,947.65
2018-03-01T01:19:44.604Z,947.62
2018-03-01T01:20:44.604Z,947.58
2018-03-01T01:21:44.609Z,947.56
2018-03-01T01:22:44.610Z,947.52
2018-03-01T01:23:44.599Z,947.42
2018-03-01T01:24:44.597Z,947.43
2018-03-01T01:25:44.595Z,947.41
2018-03-01T01:26:44.597Z,947.40
2018-03-01T01:27:44.597Z,947.35
2018-03-01T01:28:44.588Z,947.30
2018-03-01T01:29:44.598Z,947.28
2018-03-01T01:30:44.586Z,947.26
2018-03-01T01:31:44.580Z,947.26
2018-03-01T01:32:44.586Z,947.22
2018-03-01T01:33:44.584Z,947.25
2018-03-01T01:34:44.580Z,947.23
2018-03-01T01:35:44.587Z,947.23
2018-03-01T01:36:44.574Z,947.19
2018-03-01T01:37:44.579Z,947.23
2018-03-01T01:38:44.572Z,947.24
2018-03-01T01:39:44.567Z,947.20
2018-03-01T01:40:44.563Z,947.21
2018-03-01T01:41:44.574Z,947.19
2018-03-01T01:42:44.560Z,947.17
2018-03-01T01:43:44.559Z,947.12
2018-03-01T01:44:44.557Z,947.16
2018-03-01T01:45:44.554Z,947.18
2018-03-01T01:46:44.555Z,947.23
2018-03-01T01:47:44.559Z,947.21
2018-03-01T01:48:44.580Z,947.20
2018-03-01T01:49:44.547Z,947.22
2018-03-01T01:50:44.549Z,947.19
2018-03-01T01:51:44.543Z,947.19
2018-03-01T01:52:44.551Z,947.13
2018-03-01T01:53:44.540Z,947.13
2018-03-01T01:54:44.545Z,947.12
2018-03-01T01:55:44.536Z,947.08
2018-03-01T01:56:44.546Z,947.09
2018-03-01T01:57:44.535Z,947.12
2018-03-01T01:58:44.529Z,947.15
2018-03-01T01:59:44.531Z,947.19
2018-03-01T02:00:44.526Z,947.20
2018-03-01T02:01:44.529Z,947.19
2018-03-01T02:02:44.523Z,947.14
2018-03-01T02:03:44.518Z,947.21
2018-03-01T02:04:44.533Z,947.19
2018-03-01T02:05:44.519Z,947.25
2018-03-01T02:06:44.516Z,947.25
2018-03-01T02:07:44.511Z,947.25
2018-03-01T02:08:44.510Z,947.20
2018-03-01T02:09:44.513Z,947.14
2018-03-01T02:10:44.514Z,947.04
2018-03-01T02:11:44.513Z,946.97
2018-03-01T02:12:44.517Z,946.94
2018-03-01T02:13:44.501Z,947.00
2018-03-01T02:14:44.502Z,947.01
2018-03-01T02:15:44.500Z,947.02
2018-03-01T02:16:44.510Z,947.02
2018-03-01T02:17:44.494Z,946.96
2018-03-01T02:18:44.491Z,947.01
2018-03-01T02:19:44.484Z,946.94
2018-03-01T02:20:44.492Z,946.88
2018-03-01T02:21:44.482Z,946.91
2018-03-01T02:22:44.491Z,946.92
2018-03-01T02:23:44.490Z,946.95
2018-03-01T02:24:44.476Z,946.91
2018-03-01T02:25:44.474Z,946.93
2018-03-01T02:26:44.471Z,946.91
2018-03-01T02:27:44.474Z,946.91
2018-03-01T02:28:44.480Z,946.86
2018-03-01T02:29:44.467Z,946.88
2018-03-01T02:30:44.465Z,946.80
2018-03-01T02:31:44.466Z,946.79
2018-03-01T02:32:44.463Z,946.80
2018-03-01T02:33:44.463Z,946.76
2018-03-01T02:34:44.461Z,946.79
2018-03-01T02:35:44.462Z,946.76
2018-03-01T02:36:44.451Z,946.76
2018-03-01T02:37:44.452Z,946.78
2018-03-01T02:38:44.459Z,946.80
2018-03-01T02:39:44.443Z,946.75
2018-03-01T02:40:44.442Z,946.73
2018-03-01T02:41:44.451Z,946.78
2018-03-01T02:42:44.460Z,946.76
2018-03-01T02:43:44.444Z,946.75
2018-03-01T02:44:44.436Z,946.75
2018-03-01T02:45:44.433Z,946.73
2018-03-01T02:46:44.433Z,946.75
2018-03-01T02:47:44.429Z,946.72
2018-03-01T02:48:44.428Z,946.68
2018-03-01T02:49:44.430Z,946.72
2018-03-01T02:50:44.425Z,946.67
2018-03-01T02:51:44.424Z,946.63
2018-03-01T02:52:44.421Z,946.63
2018-03-01T02:53:44.425Z,946.60
2018-03-01T02:54:44.416Z,946.60
2018-03-01T02:55:44.415Z,946.62
2018-03-01T02:56:44.412Z,946.58
2018-03-01T02:57:44.407Z,946.52
2018-03-01T02:58:44.406Z,946.52
2018-03-01T02:59:44.414Z,946.57
2018-03-01T03:00:44.412Z,946.49
2018-03-01T03:01:44.400Z,946.50
2018-03-01T03:02:44.402Z,946.56
2018-03-01T03:03:44.403Z,946.56
2018-03-01T03:04:44.394Z,946.54
2018-03-01T03:05:44.393Z,946.52
2018-03-01T03:06:44.389Z,946.45
2018-03-01T03:07:44.387Z,946.44
2018-03-01T03:08:44.395Z,946.36
2018-03-01T03:09:44.383Z,946.30
2018-03-01T03:10:44.393Z,946.21
2018-03-01T03:11:44.378Z,946.19
2018-03-01T03:12:44.425Z,946.17
2018-03-01T03:13:44.376Z,946.12
2018-03-01T03:14:44.382Z,946.09
2018-03-01T03:15:44.370Z,946.07
2018-03-01T03:16:44.379Z,946.04
2018-03-01T03:17:44.372Z,945.99
2018-03-01T03:18:44.364Z,946.05
2018-03-01T03:19:44.361Z,946.05
2018-03-01T03:20:44.361Z,946.05
2018-03-01T03:21:44.360Z,946.05
2018-03-01T03:22:44.372Z,946.09
2018-03-01T03:23:44.354Z,946.09
2018-03-01T03:24:44.353Z,946.05
2018-03-01T03:25:44.354Z,946.07
2018-03-01T03:26:44.348Z,946.04
2018-03-01T03:27:44.347Z,946.04
2018-03-01T03:28:44.389Z,946.03
2018-03-01T03:29:44.351Z,946.08
2018-03-01T03:30:44.342Z,946.05
2018-03-01T03:31:44.343Z,946.01
2018-03-01T03:32:44.356Z,946.02
2018-03-01T03:33:44.338Z,945.97
2018-03-01T03:34:44.339Z,945.94
2018-03-01T03:35:44.329Z,945.94
2018-03-01T03:36:44.328Z,945.88
2018-03-01T03:37:44.335Z,945.86
2018-03-01T03:38:44.325Z,945.82
2018-03-01T03:39:44.322Z,945.74
2018-03-01T03:40:44.321Z,945.74
2018-03-01T03:41:44.323Z,945.71
2018-03-01T03:42:44.315Z,945.77
2018-03-01T03:43:44.312Z,945.80
2018-03-01T03:44:44.315Z,945.83
2018-03-01T03:45:44.311Z,945.82
2018-03-01T03:46:44.310Z,945.85
2018-03-01T03:47:44.319Z,945.88
2018-03-01T03:48:44.303Z,945.91
2018-03-01T03:49:44.301Z,945.86
2018-03-01T03:50:44.306Z,945.87
2018-03-01T03:51:44.301Z,945.88
2018-03-01T03:52:44.299Z,945.88
2018-03-01T03:53:44.293Z,945.99
2018-03-01T03:54:44.299Z,946.00
2018-03-01T03:55:44.292Z,945.94
2018-03-01T03:56:44.310Z,945.93
2018-03-01T03:57:44.284Z,945.89
2018-03-01T03:58:44.285Z,945.82
2018-03-01T03:59:44.286Z,945.78
2018-03-01T04:00:44.287Z,945.83
2018-03-01T04:01:44.281Z,945.84
2018-03-01T04:02:44.278Z,945.83
2018-03-01T04:03:44.275Z,945.87
2018-03-01T04:04:44.275Z,945.85
2018-03-01T04:05:44.271Z,945.84
2018-03-01T04:06:44.271Z,945.82
2018-03-01T04:07:44.273Z,945.87
2018-03-01T04:08:44.295Z,945.84
2018-03-01T04:09:44.271Z,945.89
2018-03-01T04:10:44.265Z,945.94
2018-03-01T04:11:44.265Z,945.87
2018-03-01T04:12:44.261Z,945.89
2018-03-01T04:13:44.262Z,945.83
2018-03-01T04:14:44.258Z,945.78
2018-03-01T04:15:44.258Z,945.77
2018-03-01T04:16:44.253Z,945.75
2018-03-01T04:17:44.250Z,945.79
2018-03-01T04:18:44.255Z,945.78
2018-03-01T04:19:44.250Z,945.71
2018-03-01T04:20:44.251Z,945.74
2018-03-01T04:21:44.241Z,945.69
2018-03-01T04:22:44.243Z,945.69
2018-03-01T04:23:44.236Z,945.71
2018-03-01T04:24:44.236Z,945.69
2018-03-01T04:25:44.235Z,945.68
2018-03-01T04:26:44.231Z,945.64
2018-03-01T04:27:44.245Z,945.65
2018-03-01T04:28:44.350Z,945.64
2018-03-01T04:29:44.229Z,945.68
2018-03-01T04:30:44.223Z,945.64
2018-03-01T04:31:44.225Z,945.65
2018-03-01T04:32:44.220Z,945.64
2018-03-01T04:33:44.223Z,945.68
2018-03-01T04:34:44.224Z,945.70
2018-03-01T04:35:44.218Z,945.65
2018-03-01T04:36:44.230Z,945.63
2018-03-01T04:37:44.219Z,945.67
2018-03-01T04:38:44.211Z,945.66
2018-03-01T04:39:44.206Z,945.62
2018-03-01T04:40:44.219Z,945.62
2018-03-01T04:41:44.211Z,945.59
2018-03-01T04:42:44.214Z,945.57
2018-03-01T04:43:44.200Z,945.49
2018-03-01T04:44:44.199Z,945.47
2018-03-01T04:45:44.198Z,945.46
2018-03-01T04:46:44.195Z,945.38
2018-03-01T04:47:44.192Z,945.38
2018-03-01T04:48:44.200Z,945.35
2018-03-01T04:49:44.197Z,945.36
2018-03-01T04:50:44.195Z,945.34
2018-03-01T04:51:44.212Z,945.34
2018-03-01T04:52:44.184Z,945.38
2018-03-01T04:53:44.188Z,945.37
2018-03-01T04:54:44.187Z,945.34
2018-03-01T04:55:44.190Z,945.31
2018-03-01T04:56:44.190Z,945.29
2018-03-01T04:57:44.181Z,945.26
2018-03-01T04:58:51.841Z,945.26
2018-03-01T05:00:37.612Z,945.25
2018-03-01T05:01:37.574Z,945.29
2018-03-01T05:03:42.059Z,945.25
2018-03-01T05:04:42.061Z,945.28
2018-03-01T05:05:42.051Z,945.26
2018-03-01T05:06:42.049Z,945.29
2018-03-01T05:07:42.045Z,945.32
2018-03-01T05:08:42.110Z,945.33
2018-03-01T05:09:42.066Z,945.27
2018-03-01T05:10:42.086Z,945.26
2018-03-01T05:11:42.072Z,945.22
2018-03-01T05:12:42.053Z,945.11
2018-03-01T05:13:42.037Z,945.04
2018-03-01T05:14:42.042Z,944.94
2018-03-01T05:15:42.043Z,944.85
2018-03-01T05:16:42.036Z,944.85
2018-03-01T05:17:42.039Z,944.78
2018-03-01T05:18:42.029Z,944.72
2018-03-01T05:19:42.026Z,944.67
2018-03-01T05:20:42.025Z,944.61
2018-03-01T05:21:42.022Z,944.54
2018-03-01T05:22:42.036Z,944.55
2018-03-01T05:23:42.018Z,944.58
2018-03-01T05:24:42.021Z,944.67
2018-03-01T05:25:49.756Z,944.77
2018-03-01T05:27:56.220Z,944.91
2018-03-01T05:28:47.482Z,944.94
2018-03-01T05:29:47.694Z,944.96
2018-03-01T05:30:47.553Z,945.03
2018-03-01T05:31:47.566Z,944.95
2018-03-01T05:32:47.477Z,944.94
2018-03-01T05:33:56.231Z,944.93
2018-03-01T05:35:52.968Z,945.02
2018-03-01T05:36:53.095Z,945.07
2018-03-01T05:38:58.450Z,945.09
2018-03-01T05:39:58.471Z,945.06
2018-03-01T05:42:03.899Z,945.09
2018-03-01T05:43:12.578Z,945.08
2018-03-01T05:45:09.438Z,945.12
2018-03-01T05:46:09.352Z,945.09
2018-03-01T05:48:42.514Z,945.07
2018-03-01T05:49:42.455Z,945.08
2018-03-01T05:51:48.049Z,945.12
2018-03-01T05:52:47.921Z,945.15
2018-03-01T05:54:53.418Z,945.15
2018-03-01T05:56:02.083Z,945.13
2018-03-01T05:58:05.717Z,945.12
2018-03-01T05:58:57.862Z,945.18
2018-03-01T06:00:51.363Z,945.18
2018-03-01T06:01:51.273Z,945.19
2018-03-01T06:04:04.506Z,945.21
2018-03-01T06:05:04.522Z,945.20
2018-03-01T06:07:02.334Z,945.14
2018-03-01T06:08:09.941Z,945.15
2018-03-01T06:10:17.773Z,945.11
2018-03-01T06:11:16.474Z,945.12
2018-03-01T06:13:13.184Z,945.13
2018-03-01T06:14:21.871Z,945.18
2018-03-01T06:16:18.697Z,945.20
2018-03-01T06:17:27.381Z,945.13
2018-03-01T06:19:24.654Z,945.10
2018-03-01T06:20:31.811Z,945.14
2018-03-01T06:22:29.688Z,945.12
2018-03-01T06:23:38.283Z,945.11
2018-03-01T06:25:35.102Z,945.09
2018-03-01T06:26:43.756Z,945.07
2018-03-01T06:28:40.584Z,945.04
2018-03-01T06:29:49.206Z,944.94
2018-03-01T06:31:46.042Z,944.94
2018-03-01T06:32:53.771Z,944.90
2018-03-01T06:34:51.603Z,944.81
2018-03-01T06:35:59.172Z,944.80
2018-03-01T06:37:57.014Z,944.85
2018-03-01T06:39:04.650Z,944.86
2018-03-01T06:40:51.323Z,944.86
2018-03-01T06:41:59.084Z,944.85
2018-03-01T06:43:56.849Z,944.84
2018-03-01T06:45:05.493Z,944.85
2018-03-01T06:47:02.277Z,944.92
2018-03-01T06:48:02.309Z,944.85
2018-03-01T06:50:06.826Z,944.85
2018-03-01T06:51:06.752Z,944.94
2018-03-01T06:53:12.227Z,945.03
2018-03-01T06:54:12.241Z,944.97
2018-03-01T06:56:17.783Z,944.80
2018-03-01T06:57:25.405Z,944.72
2018-03-01T06:59:23.202Z,944.85
2018-03-01T07:00:31.916Z,944.94
2018-03-01T07:02:36.393Z,944.96
2018-03-01T07:03:37.332Z,944.96
2018-03-01T07:05:42.841Z,944.78
2018-03-01T07:06:42.775Z,944.72
2018-03-01T07:08:47.361Z,944.82
2018-03-01T07:09:48.338Z,944.85
2018-03-01T07:11:45.046Z,944.98
2018-03-01T07:12:53.746Z,944.93
2018-03-01T07:14:59.268Z,944.87
2018-03-01T07:15:50.502Z,944.83
2018-03-01T07:17:55.088Z,944.84
2018-03-01T07:18:55.098Z,944.85
2018-03-01T07:20:49.476Z,944.73
2018-03-01T07:21:57.233Z,944.73
2018-03-01T07:23:54.010Z,944.68
2018-03-01T07:24:54.023Z,944.64
2018-03-01T07:26:58.561Z,944.62
2018-03-01T07:27:58.413Z,944.58
2018-03-01T07:28:58.505Z,944.54
2018-03-01T07:30:06.249Z,944.53
2018-03-01T07:32:04.183Z,944.48
2018-03-01T07:33:04.003Z,944.50
2018-03-01T07:35:09.441Z,944.55
2018-03-01T07:36:09.530Z,944.55
2018-03-01T07:38:14.902Z,944.50
2018-03-01T07:39:23.619Z,944.50
2018-03-01T07:41:09.287Z,944.48
2018-03-01T07:42:17.970Z,944.41
2018-03-01T07:44:13.813Z,944.46
2018-03-01T07:45:13.900Z,944.50
2018-03-01T07:47:19.319Z,944.46
2018-03-01T07:48:19.257Z,944.45
2018-03-01T07:49:19.300Z,944.36
2018-03-01T07:50:19.307Z,944.36
2018-03-01T07:51:19.328Z,944.32
2018-03-01T07:52:19.265Z,944.32
2018-03-01T07:53:19.245Z,944.33
2018-03-01T07:54:19.252Z,944.32
2018-03-01T07:55:19.246Z,944.35
2018-03-01T07:56:19.258Z,944.30
2018-03-01T07:57:19.252Z,944.28
2018-03-01T07:58:19.242Z,944.22
2018-03-01T07:59:19.241Z,944.22
2018-03-01T08:00:19.244Z,944.20
2018-03-01T08:01:19.244Z,944.14
2018-03-01T08:02:19.239Z,944.11
2018-03-01T08:03:19.237Z,944.14
2018-03-01T08:04:19.262Z,944.13
2018-03-01T08:05:19.237Z,944.15
2018-03-01T08:06:19.236Z,944.19
2018-03-01T08:07:19.242Z,944.17
2018-03-01T08:08:19.235Z,944.16
2018-03-01T08:09:19.232Z,944.15
2018-03-01T08:10:19.233Z,944.11
2018-03-01T08:11:19.268Z,944.11
2018-03-01T08:12:19.231Z,944.08
2018-03-01T08:13:19.242Z,944.09
2018-03-01T08:14:19.228Z,944.09
2018-03-01T08:15:19.227Z,944.09
2018-03-01T08:16:19.229Z,944.07
2018-03-01T08:17:19.229Z,944.12
2018-03-01T08:18:19.228Z,944.11
2018-03-01T08:19:19.233Z,944.10
2018-03-01T08:20:19.227Z,944.08
2018-03-01T08:21:19.227Z,944.09
2018-03-01T08:22:19.233Z,944.07
2018-03-01T08:23:19.225Z,944.00
2018-03-01T08:24:19.226Z,944.05
2018-03-01T08:25:19.278Z,943.97
2018-03-01T08:26:19.228Z,944.02
2018-03-01T08:27:19.227Z,944.00
2018-03-01T08:28:19.230Z,943.95
2018-03-01T08:29:19.226Z,944.00
2018-03-01T08:30:19.225Z,944.01
2018-03-01T08:31:19.226Z,944.02
2018-03-01T08:32:19.225Z,943.96
2018-03-01T08:33:19.227Z,943.95
2018-03-01T08:34:19.222Z,943.97
2018-03-01T08:35:19.277Z,943.96
2018-03-01T08:36:19.223Z,943.94
2018-03-01T08:37:19.231Z,943.93
2018-03-01T08:38:19.225Z,944.01
2018-03-01T08:39:19.224Z,944.03
2018-03-01T08:40:19.224Z,944.02
2018-03-01T08:41:19.224Z,944.07
2018-03-01T08:42:19.227Z,944.04
2018-03-01T08:43:19.224Z,944.08
2018-03-01T08:44:19.222Z,944.09
2018-03-01T08:45:19.228Z,944.09
2018-03-01T08:46:20.195Z,944.10
2018-03-01T08:47:19.228Z,944.13
2018-03-01T08:48:19.229Z,944.09
2018-03-01T08:49:19.229Z,944.17
2018-03-01T08:50:19.231Z,944.20
2018-03-01T08:51:19.227Z,944.20
2018-03-01T08:52:19.226Z,944.23
2018-03-01T08:53:19.240Z,944.20
2018-03-01T08:54:19.226Z,944.23
2018-03-01T08:55:19.232Z,944.17
2018-03-01T08:56:19.228Z,944.17
2018-03-01T08:57:19.238Z,944.20
2018-03-01T08:58:19.230Z,944.16
2018-03-01T08:59:19.236Z,944.16
2018-03-01T09:00:19.230Z,944.22
2018-03-01T09:01:19.278Z,944.22
2018-03-01T09:02:19.233Z,944.20
2018-03-01T09:03:19.233Z,944.20
2018-03-01T09:04:19.231Z,944.22
2018-03-01T09:05:19.253Z,944.19
2018-03-01T09:06:19.237Z,944.19
2018-03-01T09:07:19.298Z,944.22
2018-03-01T09:08:19.288Z,944.26
2018-03-01T09:09:19.250Z,944.23
2018-03-01T09:10:19.233Z,944.21
2018-03-01T09:11:19.237Z,944.26
2018-03-01T09:12:19.243Z,944.22
2018-03-01T09:13:19.234Z,944.18
2018-03-01T09:14:19.252Z,944.18
2018-03-01T09:15:19.238Z,944.18
2018-03-01T09:16:19.236Z,944.18
2018-03-01T09:17:19.237Z,944.11
2018-03-01T09:18:19.296Z,944.21
2018-03-01T09:19:19.244Z,944.18
2018-03-01T09:20:19.243Z,944.18
2018-03-01T09:21:19.243Z,944.19
2018-03-01T09:22:19.241Z,944.20
2018-03-01T09:23:19.241Z,944.20
2018-03-01T09:24:19.264Z,944.20
2018-03-01T09:25:19.247Z,944.26
2018-03-01T09:26:19.243Z,944.25
2018-03-01T09:27:19.245Z,944.28
2018-03-01T09:28:19.243Z,944.27
2018-03-01T09:29:19.246Z,944.29
2018-03-01T09:30:19.247Z,944.28
2018-03-01T09:31:19.251Z,944.27
2018-03-01T09:32:19.268Z,944.27
2018-03-01T09:33:19.250Z,944.26
2018-03-01T09:34:19.250Z,944.27
2018-03-01T09:35:19.252Z,944.30
2018-03-01T09:36:19.253Z,944.25
2018-03-01T09:37:19.255Z,944.23
2018-03-01T09:38:19.252Z,944.24
2018-03-01T09:39:19.253Z,944.21
2018-03-01T09:40:19.253Z,944.26
2018-03-01T09:41:19.294Z,944.27
2018-03-01T09:42:19.261Z,944.25
2018-03-01T09:43:19.258Z,944.24
2018-03-01T09:44:19.256Z,944.20
2018-03-01T09:45:19.260Z,944.18
2018-03-01T09:46:19.260Z,944.19
2018-03-01T09:47:19.262Z,944.17
2018-03-01T09:48:19.261Z,944.17
2018-03-01T09:49:19.262Z,944.19
2018-03-01T09:50:19.263Z,944.17
2018-03-01T09:51:19.278Z,944.26
2018-03-01T09:52:19.264Z,944.34
2018-03-01T09:53:19.264Z,944.29
2018-03-01T09:54:19.266Z,944.29
2018-03-01T09:55:19.282Z,944.34
2018-03-01T09:56:19.276Z,944.30
2018-03-01T09:57:19.301Z,944.30
2018-03-01T09:58:19.271Z,944.37
2018-03-01T09:59:19.282Z,944.38
2018-03-01T10:00:19.271Z,944.44
2018-03-01T10:01:19.272Z,944.44
2018-03-01T10:02:19.273Z,944.43
2018-03-01T10:03:19.279Z,944.53
2018-03-01T10:04:19.290Z,944.52
2018-03-01T10:05:19.284Z,944.50
2018-03-01T10:06:19.279Z,944.50
2018-03-01T10:07:19.297Z,944.51
2018-03-01T10:08:19.283Z,944.53
2018-03-01T10:09:19.290Z,944.53
2018-03-01T10:10:19.287Z,944.53
2018-03-01T10:11:19.285Z,944.51
2018-03-01T10:12:19.286Z,944.51
2018-03-01T10:13:19.304Z,944.44
2018-03-01T10:14:19.290Z,944.37
2018-03-01T10:15:19.296Z,944.41
2018-03-01T10:16:19.296Z,944.37
2018-03-01T10:17:19.296Z,944.39
2018-03-01T10:18:19.297Z,944.39
2018-03-01T10:19:19.300Z,944.40
2018-03-01T10:20:19.312Z,944.37
2018-03-01T10:21:19.303Z,944.32
2018-03-01T10:22:19.306Z,944.25
2018-03-01T10:23:19.309Z,944.24
2018-03-01T10:24:19.313Z,944.22
2018-03-01T10:25:19.312Z,944.26
2018-03-01T10:26:19.313Z,944.25
2018-03-01T10:27:19.324Z,944.27
2018-03-01T10:28:19.331Z,944.26
2018-03-01T10:29:19.319Z,944.27
2018-03-01T10:30:19.323Z,944.24
2018-03-01T10:31:19.324Z,944.24
2018-03-01T10:32:19.324Z,944.20
2018-03-01T10:33:19.327Z,944.27
2018-03-01T10:34:19.331Z,944.26
2018-03-01T10:35:19.334Z,944.27
2018-03-01T10:36:19.334Z,944.31
2018-03-01T10:37:19.349Z,944.31
2018-03-01T10:38:19.353Z,944.31
2018-03-01T10:39:19.343Z,944.34
2018-03-01T10:40:19.348Z,944.39
2018-03-01T10:41:19.346Z,944.37
2018-03-01T10:42:19.347Z,944.41
2018-03-01T10:43:19.383Z,944.42
2018-03-01T10:44:19.364Z,944.50
2018-03-01T10:45:19.354Z,944.41
2018-03-01T10:46:19.357Z,944.40
2018-03-01T10:47:19.367Z,944.45
2018-03-01T10:48:19.362Z,944.42
2018-03-01T10:49:19.369Z,944.38
2018-03-01T10:50:19.370Z,944.39
2018-03-01T10:51:19.372Z,944.38
2018-03-01T10:52:19.372Z,944.32
2018-03-01T10:53:19.383Z,944.28
2018-03-01T10:54:19.379Z,944.22
2018-03-01T10:55:19.416Z,944.24
2018-03-01T10:56:19.396Z,944.26
2018-03-01T10:57:19.391Z,944.21
2018-03-01T10:58:19.393Z,944.19
2018-03-01T10:59:19.397Z,944.18
2018-03-01T11:00:19.399Z,944.12
2018-03-01T11:01:19.402Z,944.17
2018-03-01T11:02:19.408Z,944.08
2018-03-01T11:03:19.420Z,944.07
2018-03-01T11:04:19.411Z,944.08
2018-03-01T11:05:19.422Z,944.01
2018-03-01T11:06:19.418Z,944.04
2018-03-01T11:07:19.423Z,944.04
2018-03-01T11:08:19.423Z,943.99
2018-03-01T11:09:19.431Z,944.01
2018-03-01T11:10:19.429Z,944.02
2018-03-01T11:11:19.433Z,944.02
2018-03-01T11:12:19.435Z,944.01
2018-03-01T11:13:19.447Z,944.03
2018-03-01T11:14:19.443Z,944.11
2018-03-01T11:15:19.449Z,944.17
2018-03-01T11:16:19.450Z,944.20
2018-03-01T11:17:19.453Z,944.25
2018-03-01T11:18:19.454Z,944.20
2018-03-01T11:19:19.477Z,944.15
2018-03-01T11:20:19.462Z,944.10
2018-03-01T11:21:19.465Z,943.94
2018-03-01T11:22:19.472Z,943.95
2018-03-01T11:23:19.526Z,943.92
2018-03-01T11:24:19.490Z,943.91
2018-03-01T11:25:19.477Z,943.87
2018-03-01T11:26:19.480Z,943.84
2018-03-01T11:27:19.517Z,943.80
2018-03-01T11:28:19.505Z,943.79
2018-03-01T11:29:19.493Z,943.73
2018-03-01T11:30:19.507Z,943.66
2018-03-01T11:31:19.537Z,943.60
2018-03-01T11:32:19.505Z,943.61
2018-03-01T11:33:19.507Z,943.59
2018-03-01T11:34:19.513Z,943.60
2018-03-01T11:35:19.512Z,943.63
2018-03-01T11:36:19.517Z,943.70
2018-03-01T11:37:19.558Z,943.77
2018-03-01T11:38:19.522Z,943.80
2018-03-01T11:39:19.528Z,943.75
2018-03-01T11:40:19.532Z,943.78
2018-03-01T11:41:19.536Z,943.80
2018-03-01T11:42:19.569Z,943.82
2018-03-01T11:43:19.570Z,943.79
2018-03-01T11:44:19.544Z,943.89
2018-03-01T11:45:19.556Z,943.91
2018-03-01T11:46:19.552Z,943.99
2018-03-01T11:47:19.559Z,944.10
2018-03-01T11:48:19.563Z,944.06
2018-03-01T11:49:19.566Z,944.05
2018-03-01T11:50:19.568Z,944.29
2018-03-01T11:51:19.580Z,944.48
2018-03-01T11:52:19.583Z,944.92
2018-03-01T11:53:19.583Z,944.91
2018-03-01T11:54:19.600Z,944.85
2018-03-01T11:55:19.602Z,945.04
2018-03-01T11:56:19.602Z,944.77
2018-03-01T11:57:19.651Z,944.83
2018-03-01T11:58:19.641Z,944.86
2018-03-01T11:59:19.644Z,944.68
2018-03-01T12:00:19.630Z,945.01
2018-03-01T12:01:19.637Z,944.91
2018-03-01T12:02:19.646Z,944.71
2018-03-01T12:03:19.653Z,944.56
2018-03-01T12:04:19.666Z,944.58
2018-03-01T12:05:19.669Z,944.56
2018-03-01T12:06:19.677Z,944.41
2018-03-01T12:07:19.688Z,944.57
2018-03-01T12:08:19.694Z,944.82
2018-03-01T12:09:19.703Z,944.90
2018-03-01T12:10:19.718Z,944.95
2018-03-01T12:11:19.718Z,944.94
2018-03-01T12:12:19.733Z,945.15
2018-03-01T12:13:19.741Z,945.08
2018-03-01T12:14:19.748Z,945.18
2018-03-01T12:15:19.757Z,945.28
2018-03-01T12:16:19.771Z,945.12
2018-03-01T12:17:19.775Z,944.57
2018-03-01T12:18:19.785Z,944.19
2018-03-01T12:19:19.792Z,943.79
2018-03-01T12:20:19.804Z,943.69
2018-03-01T12:21:19.813Z,943.71
2018-03-01T12:22:19.821Z,943.82
2018-03-01T12:23:19.841Z,943.93
2018-03-01T12:24:19.836Z,944.05
2018-03-01T12:25:19.855Z,944.04
2018-03-01T12:26:19.868Z,943.87
2018-03-01T12:27:19.877Z,943.69
2018-03-01T12:28:19.881Z,943.73
2018-03-01T12:29:19.890Z,943.87
2018-03-01T12:30:19.891Z,943.79
2018-03-01T12:31:19.924Z,943.81
2018-03-01T12:32:19.915Z,943.71
2018-03-01T12:33:19.923Z,943.87
2018-03-01T12:34:19.925Z,943.95
2018-03-01T12:35:19.941Z,943.53
2018-03-01T12:36:19.944Z,943.76
2018-03-01T12:37:19.965Z,943.64
2018-03-01T12:38:19.961Z,943.55
2018-03-01T12:39:19.971Z,943.47
2018-03-01T12:40:19.978Z,943.93
2018-03-01T12:41:19.988Z,943.99
2018-03-01T12:42:20.005Z,943.96
2018-03-01T12:43:20.017Z,943.94
2018-03-01T12:44:20.009Z,943.62
2018-03-01T12:45:20.018Z,943.56
2018-03-01T12:46:20.034Z,943.63
2018-03-01T12:47:20.053Z,943.70
2018-03-01T12:48:20.046Z,943.75
2018-03-01T12:49:20.070Z,943.64
2018-03-01T12:50:20.061Z,943.65
2018-03-01T12:51:27.783Z,943.78
2018-03-01T12:53:24.638Z,943.87
2018-03-01T12:54:24.592Z,943.88
2018-03-01T12:56:31.812Z,943.71
2018-03-01T12:57:31.601Z,943.69
2018-03-01T12:59:36.262Z,943.55
2018-03-01T13:00:36.100Z,943.46
2018-03-01T13:02:40.603Z,943.27
2018-03-01T13:03:40.786Z,943.22
2018-03-01T13:05:45.179Z,943.33
2018-03-01T13:06:45.204Z,943.35
2018-03-01T13:08:49.623Z,943.29
2018-03-01T13:09:49.608Z,943.22
2018-03-01T13:11:54.187Z,943.09
2018-03-01T13:12:54.155Z,943.10
2018-03-01T13:14:58.610Z,943.20
2018-03-01T13:15:58.588Z,943.13
2018-03-01T13:18:03.138Z,943.06
2018-03-01T13:19:03.153Z,943.05
2018-03-01T13:20:56.512Z,942.99
2018-03-01T13:21:56.662Z,942.97
2018-03-01T13:22:56.546Z,942.94
2018-03-01T13:23:56.520Z,942.95
2018-03-01T13:24:56.557Z,942.95
2018-03-01T13:25:56.530Z,942.93
2018-03-01T13:26:56.543Z,942.94
2018-03-01T13:27:56.549Z,942.80
2018-03-01T13:28:56.585Z,942.91